Terminal Aerodrome Forecast
Issued by NWS

Home | Current Version | Previous Version | Text Only | Print | Product List | Glossary On
Versions: 1 2 3 4 5 6 7 8 9 10 11 12 13 14 15
674
FTUS43 KTOP 290219 AAB
TAFFOE
TAF AMD
KFOE 290219Z 2902/2924 05004KT P6SM -SHRA VCTS BKN040CB
      TEMPO 2902/2904 VRB22G40KT 2SM TSRA BKN015CB
     FM290400 02005KT P6SM VCSH SCT040 BKN120=

USA.gov is the U.S. government's official web portal to all federal, state and local government web resources and services.